Eems Servant — PBTI — position and weather

sailwx.info

Track history (hours):
 
Tides and Currents Weather Stations Pressure Air Temp Water Temp Dewpoint Dewpoint Depression Visibility Wind Speed Wind Dir Waves Ship Positions

Eems Servant

Last reported at 2015-Feb-24 03:08 UTC. Time now 2015-Feb-27 13:10 UTC.
Position N 53°25' E 000°26'.

Length 87 m; draft 2.8 m.

Type: Cargo ship. MMSI: 246236000.

Date/timePositionNaut miles runAvg speedWind from/ knotsBaromVisibWave heightAir tempDewpointWater temp
2015-Feb-24 03:08N 53°25' E 000°26'4 6.5
2015-Feb-24 02:33N 53°28' E 000°22'6 6.1
2015-Feb-24 01:33N 53°32' E 000°15'10 9.7
2015-Feb-24 00:33N 53°35' W 000°01'1313.0
2015-Feb-23 23:33N 53°43' W 000°18'1110.2
2015-Feb-23 22:31N 53°43' W 000°36'4 0.1
2015-Feb-22 07:29N 53°42' W 000°29'8 8.7
2015-Feb-22 06:33N 53°44' W 000°16'8 8.1
2015-Feb-22 05:33N 53°37' W 000°07'1111.1
2015-Feb-22 04:33N 53°33' E 000°10'6 6.0
2015-Feb-22 03:33N 53°33' E 000°20'4 1.3
2015-Feb-22 00:31N 53°35' E 000°26'0 0.0
2015-Feb-21 23:07N 53°35' E 000°26'0 0.1
2015-Feb-21 21:07N 53°35' E 000°26'0 0.1
2015-Feb-21 20:19N 53°35' E 000°26'0 0.0
2015-Feb-21 17:25N 53°35' E 000°26'0 0.0
2015-Feb-21 16:22N 53°35' E 000°26'0 0.0
2015-Feb-21 15:10N 53°35' E 000°26'0 0.1
2015-Feb-21 14:31N 53°35' E 000°26'0 0.0
2015-Feb-21 12:31N 53°35' E 000°26'0 0.0
2015-Feb-21 11:19N 53°35' E 000°26'0 0.0
2015-Feb-21 10:19N 53°35' E 000°26'0 0.1
2015-Feb-21 09:05N 53°35' E 000°26'154 8.3
2015-Feb-20 14:26N 53°31' E 004°46'1110.1
2015-Feb-20 13:22N 53°35' E 005°03'8 9.8
2015-Feb-20 12:33N 53°37' E 005°16'9 9.3
2015-Feb-20 11:33N 53°40' E 005°31'8 8.4
2015-Feb-20 10:33N 53°42' E 005°45'61 7.6
2015-Feb-20 02:30N 53°59' E 007°24'8 8.0
2015-Feb-20 01:33N 54°01' E 007°37'8 7.6
2015-Feb-20 00:33N 54°01' E 007°50'7 7.1
2015-Feb-19 23:33N 54°01' E 008°02'9 6.9
2015-Feb-19 22:12N 54°00' E 008°18'4 6.6
2015-Feb-19 21:34N 53°60' E 008°25'6 6.5
2015-Feb-19 20:33N 53°58' E 008°35'10 9.9
2015-Feb-19 19:33N 53°51' E 008°47'1212.1
2015-Feb-19 18:33N 53°53' E 009°07'1111.1
2015-Feb-19 17:33N 53°47' E 009°23'1111.2
2015-Feb-19 16:33N 53°37' E 009°33'9 9.1
2015-Feb-19 15:33N 53°34' E 009°46'7 6.9
2015-Feb-19 14:33N 53°31' E 009°57'0 0.0
2015-Feb-19 13:33N 53°31' E 009°57'0 0.0
2015-Feb-19 12:33N 53°31' E 009°57'0 0.0
2015-Feb-19 11:33N 53°31' E 009°57'0 0.0
2015-Feb-19 10:33N 53°31' E 009°57'0 0.0
2015-Feb-19 09:33N 53°31' E 009°57'0 0.0
2015-Feb-19 08:33N 53°31' E 009°57'0 0.0
2015-Feb-19 07:33N 53°31' E 009°57'0 0.0
2015-Feb-19 06:33N 53°31' E 009°57'0 0.0
2015-Feb-19 05:33N 53°31' E 009°57'0 0.0
2015-Feb-19 04:33N 53°31' E 009°57'0 0.0
2015-Feb-19 03:33N 53°31' E 009°57'0 0.0
2015-Feb-19 02:33N 53°31' E 009°57'0 0.0
2015-Feb-19 01:33N 53°31' E 009°57'0 0.0
2015-Feb-19 00:33N 53°31' E 009°57'0 0.0
2015-Feb-18 23:33N 53°31' E 009°57'0 0.0
2015-Feb-18 22:33N 53°31' E 009°57'0 0.0
2015-Feb-18 21:33N 53°31' E 009°57'0 0.0
2015-Feb-18 20:33N 53°31' E 009°57'0 0.0
2015-Feb-18 19:33N 53°31' E 009°57'0 0.0
2015-Feb-18 18:33N 53°31' E 009°57'0 0.0
2015-Feb-18 17:33N 53°31' E 009°57'0 0.0
2015-Feb-18 16:33N 53°31' E 009°57'0 0.0
2015-Feb-18 15:33N 53°31' E 009°57'0 0.0
2015-Feb-18 14:33N 53°31' E 009°57'0 0.0
2015-Feb-18 13:33N 53°31' E 009°57'0 0.0
2015-Feb-18 12:33N 53°31' E 009°57'0 0.0
2015-Feb-18 11:33N 53°31' E 009°57'0 0.0
2015-Feb-18 10:33N 53°31' E 009°57'0 0.0
2015-Feb-18 09:33N 53°31' E 009°57'0 0.0
2015-Feb-18 08:33N 53°31' E 009°57'0 0.0
2015-Feb-18 07:33N 53°31' E 009°57'3 3.1
2015-Feb-18 06:33N 53°33' E 009°53'8 8.2
2015-Feb-18 05:33N 53°34' E 009°39'4 4.1
2015-Feb-18 04:30N 53°37' E 009°33'0 0.0
2015-Feb-18 03:33N 53°37' E 009°33'0 0.1
2015-Feb-18 02:15N 53°37' E 009°33'0 0.0
2015-Feb-17 23:12N 53°37' E 009°33'0 0.0
2015-Feb-17 22:15N 53°37' E 009°33'0 0.0
2015-Feb-17 21:30N 53°37' E 009°33'0 0.1
2015-Feb-17 20:24N 53°37' E 009°33'0 0.0
2015-Feb-17 19:24N 53°37' E 009°33'0 0.0
2015-Feb-17 17:24N 53°37' E 009°33'3 3.0
2015-Feb-17 16:32N 53°39' E 009°31'7 7.6
2015-Feb-17 15:33N 53°45' E 009°24'8 7.6
2015-Feb-17 14:33N 53°52' E 009°17'8 8.0
2015-Feb-17 13:33N 53°52' E 009°04'9 9.4
2015-Feb-17 12:33N 53°50' E 008°48'10 9.8
2015-Feb-17 11:33N 53°57' E 008°36'1010.1
2015-Feb-17 10:32N 53°59' E 008°19'1110.8
2015-Feb-17 09:29N 53°58' E 007°60'1111.3
2015-Feb-17 08:32N 53°55' E 007°42'5911.8
2015-Feb-17 03:33N 53°41' E 006°06'1111.1
2015-Feb-17 02:33N 53°37' E 005°48'1010.5
2015-Feb-17 01:33N 53°34' E 005°31'1010.0
2015-Feb-17 00:31N 53°31' E 005°15'9 9.3
2015-Feb-16 23:33N 53°28' E 005°01'39 9.2
2015-Feb-16 19:22N 52°57' E 004°20'17 9.3
2015-Feb-16 17:33N 52°42' E 004°10'1010.3
2015-Feb-16 16:33N 52°33' E 004°19'2 2.4
2015-Feb-16 15:33N 52°31' E 004°21'0 0.0
2015-Feb-16 14:33N 52°31' E 004°21'0 0.0
2015-Feb-16 13:33N 52°31' E 004°21'0 0.0
2015-Feb-16 12:33N 52°31' E 004°21'0 0.0
2015-Feb-16 11:33N 52°31' E 004°21'0 0.1
2015-Feb-16 10:33N 52°31' E 004°21'0 0.1
2015-Feb-16 09:33N 52°31' E 004°21'0 0.0
2015-Feb-16 08:33N 52°31' E 004°21'0 0.0
2015-Feb-16 07:33N 52°31' E 004°21'0 0.0
2015-Feb-16 06:33N 52°31' E 004°21'0 0.0
2015-Feb-16 05:33N 52°31' E 004°21'0 0.0
2015-Feb-16 04:33N 52°31' E 004°21'0 0.0
2015-Feb-16 03:33N 52°31' E 004°21'0 0.0
2015-Feb-16 02:33N 52°31' E 004°21'0 0.0
2015-Feb-16 01:33N 52°31' E 004°21'0 0.0
2015-Feb-16 00:33N 52°31' E 004°21'0 0.0
2015-Feb-15 23:30N 52°31' E 004°21'0 0.0
2015-Feb-15 22:30N 52°31' E 004°21'0 0.1
2015-Feb-15 21:33N 52°31' E 004°21'0 0.0
2015-Feb-15 20:33N 52°31' E 004°21'0 0.0
2015-Feb-15 19:33N 52°31' E 004°21'0 0.0
2015-Feb-15 18:33N 52°31' E 004°21'0 0.0
2015-Feb-15 17:33N 52°31' E 004°21'0 0.0
2015-Feb-15 16:27N 52°31' E 004°21'0 0.1
2015-Feb-15 15:33N 52°31' E 004°21'0 0.0
2015-Feb-15 14:33N 52°31' E 004°21'0 0.0
2015-Feb-15 13:30N 52°31' E 004°21'0 0.0
2015-Feb-15 12:30N 52°31' E 004°21'0 0.0
2015-Feb-15 11:33N 52°31' E 004°21'0 0.0
2015-Feb-15 10:33N 52°31' E 004°21'0 0.1
2015-Feb-15 09:30N 52°31' E 004°21'0 0.0
2015-Feb-15 08:33N 52°31' E 004°21'0 0.0
2015-Feb-15 07:33N 52°31' E 004°21'0 0.0
2015-Feb-15 06:33N 52°31' E 004°21'0 0.0
2015-Feb-15 05:33N 52°31' E 004°21'0 0.0
2015-Feb-15 04:30N 52°31' E 004°21'0 0.1
2015-Feb-15 03:30N 52°31' E 004°21'0 0.0
2015-Feb-15 02:33N 52°31' E 004°21'0 0.0
2015-Feb-15 01:33N 52°31' E 004°21'0 0.0
2015-Feb-15 00:33N 52°31' E 004°21'0 0.0
2015-Feb-14 23:33N 52°31' E 004°21'0 0.0
2015-Feb-14 22:33N 52°31' E 004°21'0 0.0
2015-Feb-14 21:33N 52°31' E 004°21'0 0.0
2015-Feb-14 20:33N 52°31' E 004°21'0 0.0
2015-Feb-14 19:33N 52°31' E 004°21'0 0.0
2015-Feb-14 18:33N 52°31' E 004°21'0 0.0
2015-Feb-14 17:33N 52°31' E 004°21'0 0.0
2015-Feb-14 16:33N 52°31' E 004°21'0 0.0
2015-Feb-14 15:33N 52°31' E 004°21'0 0.1
2015-Feb-14 14:33N 52°31' E 004°21'0 0.0
2015-Feb-14 13:33N 52°31' E 004°21'0 0.0
2015-Feb-14 12:33N 52°31' E 004°21'0 0.0
2015-Feb-14 11:33N 52°31' E 004°21'0 0.0
2015-Feb-14 10:33N 52°31' E 004°21'0 0.0
2015-Feb-14 07:33N 52°31' E 004°21'0 0.0
2015-Feb-14 06:33N 52°31' E 004°21'0 0.0
2015-Feb-14 05:30N 52°31' E 004°21'0 0.0
2015-Feb-14 04:33N 52°31' E 004°21'0 0.0
2015-Feb-14 03:33N 52°31' E 004°21'  
Track history (hours):
 
Tides and Currents Weather Stations Pressure Air Temp Water Temp Dewpoint Dewpoint Depression Visibility Wind Speed Wind Dir Waves Ship Positions

Eems Servant

Last reported at 2015-Feb-24 03:08 UTC. Time now 2015-Feb-27 13:10 UTC.
Position N 53°25' E 000°26'.

Length 87 m; draft 2.8 m.

Type: Cargo ship. MMSI: 246236000.

Date/timePositionNaut miles runAvg speedWind from/ knotsBaromVisibWave heightAir tempDewpointWater temp
2015-Feb-24 03:08N 53°25' E 000°26'4 6.5
2015-Feb-24 02:33N 53°28' E 000°22'6 6.1
2015-Feb-24 01:33N 53°32' E 000°15'10 9.7
2015-Feb-24 00:33N 53°35' W 000°01'1313.0
2015-Feb-23 23:33N 53°43' W 000°18'1110.2
2015-Feb-23 22:31N 53°43' W 000°36'4 0.1
2015-Feb-22 07:29N 53°42' W 000°29'8 8.7
2015-Feb-22 06:33N 53°44' W 000°16'8 8.1
2015-Feb-22 05:33N 53°37' W 000°07'1111.1
2015-Feb-22 04:33N 53°33' E 000°10'6 6.0
2015-Feb-22 03:33N 53°33' E 000°20'4 1.3
2015-Feb-22 00:31N 53°35' E 000°26'0 0.0
2015-Feb-21 23:07N 53°35' E 000°26'0 0.1
2015-Feb-21 21:07N 53°35' E 000°26'0 0.1
2015-Feb-21 20:19N 53°35' E 000°26'0 0.0
2015-Feb-21 17:25N 53°35' E 000°26'0 0.0
2015-Feb-21 16:22N 53°35' E 000°26'0 0.0
2015-Feb-21 15:10N 53°35' E 000°26'0 0.1
2015-Feb-21 14:31N 53°35' E 000°26'0 0.0
2015-Feb-21 12:31N 53°35' E 000°26'0 0.0
2015-Feb-21 11:19N 53°35' E 000°26'0 0.0
2015-Feb-21 10:19N 53°35' E 000°26'0 0.1
2015-Feb-21 09:05N 53°35' E 000°26'154 8.3
2015-Feb-20 14:26N 53°31' E 004°46'1110.1
2015-Feb-20 13:22N 53°35' E 005°03'8 9.8
2015-Feb-20 12:33N 53°37' E 005°16'9 9.3
2015-Feb-20 11:33N 53°40' E 005°31'8 8.4
2015-Feb-20 10:33N 53°42' E 005°45'61 7.6
2015-Feb-20 02:30N 53°59' E 007°24'8 8.0
2015-Feb-20 01:33N 54°01' E 007°37'8 7.6
2015-Feb-20 00:33N 54°01' E 007°50'7 7.1
2015-Feb-19 23:33N 54°01' E 008°02'9 6.9
2015-Feb-19 22:12N 54°00' E 008°18'4 6.6
2015-Feb-19 21:34N 53°60' E 008°25'6 6.5
2015-Feb-19 20:33N 53°58' E 008°35'10 9.9
2015-Feb-19 19:33N 53°51' E 008°47'1212.1
2015-Feb-19 18:33N 53°53' E 009°07'1111.1
2015-Feb-19 17:33N 53°47' E 009°23'1111.2
2015-Feb-19 16:33N 53°37' E 009°33'9 9.1
2015-Feb-19 15:33N 53°34' E 009°46'7 6.9
2015-Feb-19 14:33N 53°31' E 009°57'0 0.0
2015-Feb-19 13:33N 53°31' E 009°57'0 0.0
2015-Feb-19 12:33N 53°31' E 009°57'0 0.0
2015-Feb-19 11:33N 53°31' E 009°57'0 0.0
2015-Feb-19 10:33N 53°31' E 009°57'0 0.0
2015-Feb-19 09:33N 53°31' E 009°57'0 0.0
2015-Feb-19 08:33N 53°31' E 009°57'0 0.0
2015-Feb-19 07:33N 53°31' E 009°57'0 0.0
2015-Feb-19 06:33N 53°31' E 009°57'0 0.0
2015-Feb-19 05:33N 53°31' E 009°57'0 0.0
2015-Feb-19 04:33N 53°31' E 009°57'0 0.0
2015-Feb-19 03:33N 53°31' E 009°57'0 0.0
2015-Feb-19 02:33N 53°31' E 009°57'0 0.0
2015-Feb-19 01:33N 53°31' E 009°57'0 0.0
2015-Feb-19 00:33N 53°31' E 009°57'0 0.0
2015-Feb-18 23:33N 53°31' E 009°57'0 0.0
2015-Feb-18 22:33N 53°31' E 009°57'0 0.0
2015-Feb-18 21:33N 53°31' E 009°57'0 0.0
2015-Feb-18 20:33N 53°31' E 009°57'0 0.0
2015-Feb-18 19:33N 53°31' E 009°57'0 0.0
2015-Feb-18 18:33N 53°31' E 009°57'0 0.0
2015-Feb-18 17:33N 53°31' E 009°57'0 0.0
2015-Feb-18 16:33N 53°31' E 009°57'0 0.0
2015-Feb-18 15:33N 53°31' E 009°57'0 0.0
2015-Feb-18 14:33N 53°31' E 009°57'0 0.0
2015-Feb-18 13:33N 53°31' E 009°57'0 0.0
2015-Feb-18 12:33N 53°31' E 009°57'0 0.0
2015-Feb-18 11:33N 53°31' E 009°57'0 0.0
2015-Feb-18 10:33N 53°31' E 009°57'0 0.0
2015-Feb-18 09:33N 53°31' E 009°57'0 0.0
2015-Feb-18 08:33N 53°31' E 009°57'0 0.0
2015-Feb-18 07:33N 53°31' E 009°57'3 3.1
2015-Feb-18 06:33N 53°33' E 009°53'8 8.2
2015-Feb-18 05:33N 53°34' E 009°39'4 4.1
2015-Feb-18 04:30N 53°37' E 009°33'0 0.0
2015-Feb-18 03:33N 53°37' E 009°33'0 0.1
2015-Feb-18 02:15N 53°37' E 009°33'0 0.0
2015-Feb-17 23:12N 53°37' E 009°33'0 0.0
2015-Feb-17 22:15N 53°37' E 009°33'0 0.0
2015-Feb-17 21:30N 53°37' E 009°33'0 0.1
2015-Feb-17 20:24N 53°37' E 009°33'0 0.0
2015-Feb-17 19:24N 53°37' E 009°33'0 0.0
2015-Feb-17 17:24N 53°37' E 009°33'3 3.0
2015-Feb-17 16:32N 53°39' E 009°31'7 7.6
2015-Feb-17 15:33N 53°45' E 009°24'8 7.6
2015-Feb-17 14:33N 53°52' E 009°17'8 8.0
2015-Feb-17 13:33N 53°52' E 009°04'9 9.4
2015-Feb-17 12:33N 53°50' E 008°48'10 9.8
2015-Feb-17 11:33N 53°57' E 008°36'1010.1
2015-Feb-17 10:32N 53°59' E 008°19'1110.8
2015-Feb-17 09:29N 53°58' E 007°60'1111.3
2015-Feb-17 08:32N 53°55' E 007°42'5911.8
2015-Feb-17 03:33N 53°41' E 006°06'1111.1
2015-Feb-17 02:33N 53°37' E 005°48'1010.5
2015-Feb-17 01:33N 53°34' E 005°31'1010.0
2015-Feb-17 00:31N 53°31' E 005°15'9 9.3
2015-Feb-16 23:33N 53°28' E 005°01'39 9.2
2015-Feb-16 19:22N 52°57' E 004°20'17 9.3
2015-Feb-16 17:33N 52°42' E 004°10'1010.3
2015-Feb-16 16:33N 52°33' E 004°19'2 2.4
2015-Feb-16 15:33N 52°31' E 004°21'0 0.0
2015-Feb-16 14:33N 52°31' E 004°21'0 0.0
2015-Feb-16 13:33N 52°31' E 004°21'0 0.0
2015-Feb-16 12:33N 52°31' E 004°21'0 0.0
2015-Feb-16 11:33N 52°31' E 004°21'0 0.1
2015-Feb-16 10:33N 52°31' E 004°21'0 0.1
2015-Feb-16 09:33N 52°31' E 004°21'0 0.0
2015-Feb-16 08:33N 52°31' E 004°21'0 0.0
2015-Feb-16 07:33N 52°31' E 004°21'0 0.0
2015-Feb-16 06:33N 52°31' E 004°21'0 0.0
2015-Feb-16 05:33N 52°31' E 004°21'0 0.0
2015-Feb-16 04:33N 52°31' E 004°21'0 0.0
2015-Feb-16 03:33N 52°31' E 004°21'0 0.0
2015-Feb-16 02:33N 52°31' E 004°21'0 0.0
2015-Feb-16 01:33N 52°31' E 004°21'0 0.0
2015-Feb-16 00:33N 52°31' E 004°21'0 0.0
2015-Feb-15 23:30N 52°31' E 004°21'0 0.0
2015-Feb-15 22:30N 52°31' E 004°21'0 0.1
2015-Feb-15 21:33N 52°31' E 004°21'0 0.0
2015-Feb-15 20:33N 52°31' E 004°21'0 0.0
2015-Feb-15 19:33N 52°31' E 004°21'0 0.0
2015-Feb-15 18:33N 52°31' E 004°21'0 0.0
2015-Feb-15 17:33N 52°31' E 004°21'0 0.0
2015-Feb-15 16:27N 52°31' E 004°21'0 0.1
2015-Feb-15 15:33N 52°31' E 004°21'0 0.0
2015-Feb-15 14:33N 52°31' E 004°21'0 0.0
2015-Feb-15 13:30N 52°31' E 004°21'0 0.0
2015-Feb-15 12:30N 52°31' E 004°21'0 0.0
2015-Feb-15 11:33N 52°31' E 004°21'0 0.0
2015-Feb-15 10:33N 52°31' E 004°21'0 0.1
2015-Feb-15 09:30N 52°31' E 004°21'0 0.0
2015-Feb-15 08:33N 52°31' E 004°21'0 0.0
2015-Feb-15 07:33N 52°31' E 004°21'0 0.0
2015-Feb-15 06:33N 52°31' E 004°21'0 0.0
2015-Feb-15 05:33N 52°31' E 004°21'0 0.0
2015-Feb-15 04:30N 52°31' E 004°21'0 0.1
2015-Feb-15 03:30N 52°31' E 004°21'0 0.0
2015-Feb-15 02:33N 52°31' E 004°21'0 0.0
2015-Feb-15 01:33N 52°31' E 004°21'0 0.0
2015-Feb-15 00:33N 52°31' E 004°21'0 0.0
2015-Feb-14 23:33N 52°31' E 004°21'0 0.0
2015-Feb-14 22:33N 52°31' E 004°21'0 0.0
2015-Feb-14 21:33N 52°31' E 004°21'0 0.0
2015-Feb-14 20:33N 52°31' E 004°21'0 0.0
2015-Feb-14 19:33N 52°31' E 004°21'0 0.0
2015-Feb-14 18:33N 52°31' E 004°21'0 0.0
2015-Feb-14 17:33N 52°31' E 004°21'0 0.0
2015-Feb-14 16:33N 52°31' E 004°21'0 0.0
2015-Feb-14 15:33N 52°31' E 004°21'0 0.1
2015-Feb-14 14:33N 52°31' E 004°21'0 0.0
2015-Feb-14 13:33N 52°31' E 004°21'0 0.0
2015-Feb-14 12:33N 52°31' E 004°21'0 0.0
2015-Feb-14 11:33N 52°31' E 004°21'0 0.0
2015-Feb-14 10:33N 52°31' E 004°21'0 0.0
2015-Feb-14 07:33N 52°31' E 004°21'0 0.0
2015-Feb-14 06:33N 52°31' E 004°21'0 0.0
2015-Feb-14 05:30N 52°31' E 004°21'0 0.0
2015-Feb-14 04:33N 52°31' E 004°21'0 0.0
2015-Feb-14 03:33N 52°31' E 004°21'  

Dump ship's entire track history